sensor_id;sensor_type;location;lat;lon;timestamp;temperature;humidity
31687;DHT22;18285;51.330;4.946;2022-10-16T00:22:18;31.00;38.30
31687;DHT22;18285;51.330;4.946;2022-10-16T00:46:41;31.00;37.50
31687;DHT22;18285;51.330;4.946;2022-10-16T01:10:59;31.00;36.90
31687;DHT22;18285;51.330;4.946;2022-10-16T01:35:41;30.80;36.70
31687;DHT22;18285;51.330;4.946;2022-10-16T01:59:57;30.40;36.70
31687;DHT22;18285;51.330;4.946;2022-10-16T02:24:27;30.20;37.10
31687;DHT22;18285;51.330;4.946;2022-10-16T02:48:39;29.90;37.30
31687;DHT22;18285;51.330;4.946;2022-10-16T03:12:49;29.60;37.60
31687;DHT22;18285;51.330;4.946;2022-10-16T03:37:01;29.20;38.00
31687;DHT22;18285;51.330;4.946;2022-10-16T04:01:12;28.90;38.60
31687;DHT22;18285;51.330;4.946;2022-10-16T04:25:22;28.50;39.00
31687;DHT22;18285;51.330;4.946;2022-10-16T04:49:33;28.20;39.60
31687;DHT22;18285;51.330;4.946;2022-10-16T05:13:44;27.90;40.00
31687;DHT22;18285;51.330;4.946;2022-10-16T05:37:54;27.70;40.20
31687;DHT22;18285;51.330;4.946;2022-10-16T06:02:05;27.50;40.50
31687;DHT22;18285;51.330;4.946;2022-10-16T06:26:18;27.20;40.80
31687;DHT22;18285;51.330;4.946;2022-10-16T06:50:29;27.10;41.10
31687;DHT22;18285;51.330;4.946;2022-10-16T07:14:40;26.90;41.70
31687;DHT22;18285;51.330;4.946;2022-10-16T07:38:51;26.70;41.30
31687;DHT22;18285;51.330;4.946;2022-10-16T08:03:01;26.60;42.10
31687;DHT22;18285;51.330;4.946;2022-10-16T08:27:12;26.50;42.30
31687;DHT22;18285;51.330;4.946;2022-10-16T08:51:41;26.40;42.70
31687;DHT22;18285;51.330;4.946;2022-10-16T09:40:27;26.20;43.30
31687;DHT22;18285;51.330;4.946;2022-10-16T10:04:44;26.20;42.90
31687;DHT22;18285;51.330;4.946;2022-10-16T10:53:44;25.80;42.70
31687;DHT22;18285;51.330;4.946;2022-10-16T11:18:16;25.60;42.50
31687;DHT22;18285;51.330;4.946;2022-10-16T11:42:41;25.30;42.90
31687;DHT22;18285;51.330;4.946;2022-10-16T12:07:02;25.30;42.50
31687;DHT22;18285;51.330;4.946;2022-10-16T12:31:13;25.20;42.90
31687;DHT22;18285;51.330;4.946;2022-10-16T12:55:25;25.10;42.90
31687;DHT22;18285;51.330;4.946;2022-10-16T13:19:51;25.20;41.90
31687;DHT22;18285;51.330;4.946;2022-10-16T13:44:02;25.10;42.10
31687;DHT22;18285;51.330;4.946;2022-10-16T14:08:13;25.10;42.40
31687;DHT22;18285;51.330;4.946;2022-10-16T14:32:24;25.20;42.70
31687;DHT22;18285;51.330;4.946;2022-10-16T14:56:55;25.20;43.10
31687;DHT22;18285;51.330;4.946;2022-10-16T15:21:07;25.20;43.80
31687;DHT22;18285;51.330;4.946;2022-10-16T15:45:18;25.10;44.60
31687;DHT22;18285;51.330;4.946;2022-10-16T16:09:30;24.90;45.40
31687;DHT22;18285;51.330;4.946;2022-10-16T16:33:40;24.60;46.10
31687;DHT22;18285;51.330;4.946;2022-10-16T16:57:51;24.50;47.20
31687;DHT22;18285;51.330;4.946;2022-10-16T17:22:02;24.20;47.80
31687;DHT22;18285;51.330;4.946;2022-10-16T17:46:14;24.10;48.20
31687;DHT22;18285;51.330;4.946;2022-10-16T18:10:25;24.00;48.80
31687;DHT22;18285;51.330;4.946;2022-10-16T18:34:36;24.20;48.30
31687;DHT22;18285;51.330;4.946;2022-10-16T18:58:49;24.40;48.50
31687;DHT22;18285;51.330;4.946;2022-10-16T19:23:00;24.50;48.30
31687;DHT22;18285;51.330;4.946;2022-10-16T19:47:11;24.50;48.60
31687;DHT22;18285;51.330;4.946;2022-10-16T20:11:28;24.50;48.60
31687;DHT22;18285;51.330;4.946;2022-10-16T20:35:46;24.50;48.50
31687;DHT22;18285;51.330;4.946;2022-10-16T20:59:57;24.50;48.30
31687;DHT22;18285;51.330;4.946;2022-10-16T21:24:08;24.50;48.20
31687;DHT22;18285;51.330;4.946;2022-10-16T21:48:18;24.50;48.20
31687;DHT22;18285;51.330;4.946;2022-10-16T22:12:29;24.40;48.00
31687;DHT22;18285;51.330;4.946;2022-10-16T22:36:40;24.40;48.00
31687;DHT22;18285;51.330;4.946;2022-10-16T23:00:51;24.40;48.00
31687;DHT22;18285;51.330;4.946;2022-10-16T23:25:01;24.40;48.00
31687;DHT22;18285;51.330;4.946;2022-10-16T23:49:12;24.40;48.00
